createdAt,value
2023-02-27T00:01:00.841Z,1.50
2023-02-27T00:03:35.862Z,1.70
2023-02-27T00:06:18.415Z,2.00
2023-02-27T00:08:57.597Z,1.73
2023-02-27T00:11:34.954Z,1.05
2023-02-27T00:14:21.835Z,1.45
2023-02-27T00:16:51.986Z,1.50
2023-02-27T00:19:30.221Z,1.83
2023-02-27T00:22:01.743Z,1.52
2023-02-27T00:25:13.457Z,1.65
2023-02-27T00:28:03.440Z,1.83
2023-02-27T00:30:39.234Z,1.60
2023-02-27T00:33:25.400Z,1.77
2023-02-27T00:36:03.991Z,1.70
2023-02-27T00:38:36.995Z,1.90
2023-02-27T00:41:09.849Z,1.90
2023-02-27T00:43:42.939Z,1.53
2023-02-27T00:46:24.252Z,1.50
2023-02-27T00:49:07.439Z,1.30
2023-02-27T00:51:40.410Z,1.50
2023-02-27T00:54:12.539Z,1.33
2023-02-27T00:56:48.795Z,1.60
2023-02-27T01:02:46.771Z,1.38
2023-02-27T01:05:26.345Z,1.88
2023-02-27T01:08:14.638Z,1.90
2023-02-27T01:10:54.350Z,1.55
2023-02-27T01:13:41.531Z,2.10
2023-02-27T01:16:27.005Z,2.03
2023-02-27T01:19:02.502Z,1.77
2023-02-27T01:21:48.189Z,1.75
2023-02-27T01:24:39.474Z,1.90
2023-02-27T01:27:29.921Z,2.63
2023-02-27T01:30:18.582Z,1.70
2023-02-27T01:33:17.065Z,1.63
2023-02-27T01:36:02.049Z,1.60
2023-02-27T01:38:42.723Z,1.67
2023-02-27T01:41:33.033Z,2.08
2023-02-27T01:44:19.605Z,2.00
2023-02-27T01:47:00.989Z,1.90
2023-02-27T01:49:40.151Z,1.80
2023-02-27T01:52:26.039Z,1.58
2023-02-27T01:55:10.383Z,1.83
2023-02-27T01:57:54.027Z,1.33
2023-02-27T02:00:25.355Z,2.28
2023-02-27T02:03:38.693Z,1.73
2023-02-27T02:06:10.499Z,1.52
2023-02-27T02:08:45.748Z,1.65
2023-02-27T02:11:20.808Z,1.75
2023-02-27T02:13:53.480Z,1.47
2023-02-27T02:16:39.192Z,1.75
2023-02-27T02:19:49.002Z,1.20
2023-02-27T02:22:51.893Z,2.22
2023-02-27T02:25:54.070Z,1.50
2023-02-27T02:31:57.518Z,1.50
2023-02-27T02:34:43.963Z,2.00
2023-02-27T02:37:46.424Z,1.98
2023-02-27T02:40:52.133Z,1.60
2023-02-27T02:43:34.298Z,1.60
2023-02-27T02:46:10.668Z,2.10
2023-02-27T02:48:57.051Z,1.90
2023-02-27T02:51:38.159Z,1.80
2023-02-27T02:54:19.801Z,1.70
2023-02-27T02:57:00.196Z,1.55
2023-02-27T03:00:15.314Z,1.67
2023-02-27T03:03:19.054Z,1.77
2023-02-27T03:06:17.517Z,1.80
2023-02-27T03:09:06.239Z,1.83
2023-02-27T03:11:51.439Z,2.13
2023-02-27T03:14:38.219Z,1.85
2023-02-27T03:17:48.059Z,1.80
2023-02-27T03:20:39.991Z,1.52
2023-02-27T03:23:58.700Z,1.92
2023-02-27T03:26:45.181Z,2.13
2023-02-27T03:29:35.335Z,2.10
2023-02-27T03:32:18.522Z,1.88
2023-02-27T03:34:56.870Z,1.90
2023-02-27T03:38:08.294Z,1.77
2023-02-27T03:41:09.047Z,1.90
2023-02-27T03:44:23.878Z,2.15
2023-02-27T03:47:00.858Z,1.88
2023-02-27T03:49:35.060Z,2.10
2023-02-27T03:52:16.001Z,2.05
2023-02-27T03:55:17.899Z,2.28
2023-02-27T03:58:00.028Z,2.30
2023-02-27T04:00:29.233Z,2.30
2023-02-27T04:03:00.020Z,2.47
2023-02-27T04:05:44.087Z,2.17
2023-02-27T04:08:33.613Z,1.42
2023-02-27T04:11:30.062Z,2.20
2023-02-27T04:14:07.143Z,2.08
2023-02-27T04:16:57.808Z,2.10
2023-02-27T04:19:46.780Z,1.90
2023-02-27T04:22:36.736Z,1.90
2023-02-27T04:25:33.754Z,1.60
2023-02-27T04:28:20.280Z,1.70
2023-02-27T04:30:59.732Z,1.50
2023-02-27T04:34:00.390Z,1.88
2023-02-27T04:36:45.024Z,1.60
2023-02-27T04:39:25.003Z,2.00
2023-02-27T04:42:04.237Z,1.90
2023-02-27T04:47:25.987Z,1.60
2023-02-27T04:50:04.888Z,1.70
2023-02-27T04:53:01.173Z,1.80
2023-02-27T04:55:47.409Z,2.20
2023-02-27T04:58:26.758Z,1.88
2023-02-27T05:01:05.290Z,1.85
2023-02-27T05:03:39.106Z,1.83
2023-02-27T05:06:13.870Z,1.95
2023-02-27T05:09:24.915Z,1.95
2023-02-27T05:12:23.944Z,1.90
2023-02-27T05:15:38.651Z,1.98
2023-02-27T05:18:19.624Z,1.90
2023-02-27T05:21:53.636Z,1.67
2023-02-27T05:25:04.379Z,1.40
2023-02-27T05:27:50.424Z,2.22
2023-02-27T05:31:02.201Z,2.08
2023-02-27T05:33:52.622Z,1.65
2023-02-27T05:36:31.834Z,1.80
2023-02-27T05:39:22.138Z,1.90
2023-02-27T05:42:17.738Z,1.83
2023-02-27T05:45:00.363Z,2.13
2023-02-27T05:47:39.232Z,2.10
2023-02-27T05:50:25.296Z,1.70
2023-02-27T05:53:11.862Z,1.88
2023-02-27T05:56:13.484Z,1.80
2023-02-27T05:59:02.347Z,1.80
2023-02-27T06:01:33.959Z,1.70
2023-02-27T06:04:06.343Z,2.38
2023-02-27T06:06:49.185Z,2.50
2023-02-27T06:09:29.318Z,2.28
2023-02-27T06:12:08.664Z,1.95
2023-02-27T06:14:52.085Z,2.10
2023-02-27T06:17:37.049Z,2.42
2023-02-27T06:20:13.954Z,2.22
2023-02-27T06:22:53.310Z,2.35
2023-02-27T06:25:34.047Z,2.53
2023-02-27T06:28:04.763Z,2.35
2023-02-27T06:30:32.558Z,2.47
2023-02-27T06:33:15.980Z,2.72
2023-02-27T06:35:51.019Z,2.95
2023-02-27T06:38:38.779Z,2.70
2023-02-27T06:41:18.294Z,3.22
2023-02-27T06:43:59.789Z,2.63
2023-02-27T06:49:17.240Z,2.88
2023-02-27T06:51:58.324Z,2.90
2023-02-27T06:54:30.190Z,2.90
2023-02-27T06:57:15.935Z,2.40
2023-02-27T06:59:54.404Z,2.72
2023-02-27T07:02:39.729Z,2.42
2023-02-27T07:05:16.816Z,2.83
2023-02-27T07:08:17.729Z,2.03
2023-02-27T07:11:03.267Z,2.40
2023-02-27T07:13:53.670Z,2.75
2023-02-27T07:16:43.403Z,2.72
2023-02-27T07:19:22.809Z,2.40
2023-02-27T07:21:55.819Z,3.15
2023-02-27T07:24:40.043Z,2.47
2023-02-27T07:27:09.872Z,2.50
2023-02-27T07:30:02.578Z,2.00
2023-02-27T07:32:30.110Z,1.85
2023-02-27T07:35:03.896Z,2.00
2023-02-27T07:37:46.111Z,2.35
2023-02-27T07:40:19.110Z,2.58
2023-02-27T07:43:05.612Z,1.85
2023-02-27T07:45:40.340Z,2.00
2023-02-27T07:48:18.192Z,1.92
2023-02-27T07:50:48.936Z,2.05
2023-02-27T07:54:02.145Z,2.33
2023-02-27T07:56:35.017Z,2.42
2023-02-27T08:02:16.907Z,2.65
2023-02-27T08:07:40.724Z,5.55
2023-02-27T08:13:02.343Z,2.90
2023-02-27T08:16:21.660Z,3.10
2023-02-27T08:18:56.487Z,3.15
2023-02-27T08:21:44.831Z,3.40
2023-02-27T08:24:18.180Z,3.70
2023-02-27T08:27:03.676Z,4.40
2023-02-27T08:30:04.680Z,4.50
2023-02-27T08:32:47.559Z,4.30
2023-02-27T08:35:36.324Z,4.47
2023-02-27T08:38:23.206Z,4.70
2023-02-27T08:40:59.262Z,4.28
2023-02-27T08:43:31.990Z,3.78
2023-02-27T08:46:08.526Z,4.13
2023-02-27T08:48:50.320Z,3.88
2023-02-27T08:51:38.547Z,4.28
2023-02-27T08:54:20.518Z,4.93
2023-02-27T08:57:15.389Z,5.32
2023-02-27T09:03:02.902Z,4.00
2023-02-27T09:05:38.059Z,3.85
2023-02-27T09:08:43.003Z,4.75
2023-02-27T09:11:21.666Z,3.78
2023-02-27T09:13:56.360Z,3.75
2023-02-27T09:16:28.156Z,3.90
2023-02-27T09:19:08.670Z,3.50
2023-02-27T09:21:49.569Z,4.28
2023-02-27T09:24:20.929Z,4.30
2023-02-27T09:26:57.096Z,3.78
2023-02-27T09:29:34.873Z,3.90
2023-02-27T09:32:24.076Z,3.50
2023-02-27T09:35:01.514Z,4.32
2023-02-27T09:37:35.215Z,4.28
2023-02-27T09:40:14.565Z,4.22
2023-02-27T09:42:49.787Z,4.15
2023-02-27T09:45:45.845Z,3.67
2023-02-27T09:48:29.021Z,4.13
2023-02-27T09:54:05.224Z,4.10
2023-02-27T09:56:39.139Z,3.75
2023-02-27T09:59:24.962Z,3.70
2023-02-27T10:05:28.205Z,2.75
2023-02-27T10:08:26.303Z,3.88
2023-02-27T10:11:15.287Z,3.30
2023-02-27T10:14:06.904Z,3.30
2023-02-27T10:16:44.638Z,3.25
2023-02-27T10:19:30.735Z,4.05
2023-02-27T10:22:12.665Z,3.30
2023-02-27T10:24:57.670Z,3.53
2023-02-27T10:27:27.374Z,3.47
2023-02-27T10:30:11.177Z,3.15
2023-02-27T10:32:41.571Z,4.82
2023-02-27T10:35:27.773Z,3.67
2023-02-27T10:38:01.033Z,3.47
2023-02-27T10:40:31.987Z,3.50
2023-02-27T10:43:06.276Z,3.20
2023-02-27T10:45:39.267Z,3.47
2023-02-27T10:48:12.102Z,4.80
2023-02-27T10:50:53.507Z,3.65
2023-02-27T10:53:40.723Z,3.35
2023-02-27T10:56:28.188Z,2.95
2023-02-27T10:59:32.320Z,3.53
2023-02-27T11:02:27.580Z,3.38
2023-02-27T11:08:38.596Z,3.47
2023-02-27T11:11:29.395Z,2.78
2023-02-27T11:14:43.898Z,3.17
2023-02-27T11:17:40.965Z,2.72
2023-02-27T11:20:53.043Z,2.47
2023-02-27T11:23:35.105Z,2.30
2023-02-27T11:26:26.959Z,2.30
2023-02-27T11:29:34.429Z,2.38
2023-02-27T11:32:44.541Z,2.67
2023-02-27T11:35:40.654Z,2.70
2023-02-27T11:38:29.397Z,2.45
2023-02-27T11:41:08.789Z,2.85
2023-02-27T11:44:31.628Z,2.30
2023-02-27T11:47:41.992Z,2.70
2023-02-27T11:54:53.228Z,2.50
2023-02-27T11:57:53.312Z,2.85
2023-02-27T12:01:02.954Z,2.42
2023-02-27T12:04:23.477Z,2.72
2023-02-27T12:07:35.146Z,2.25
2023-02-27T12:11:13.808Z,2.15
2023-02-27T12:14:32.469Z,2.42
2023-02-27T12:17:36.370Z,1.70
2023-02-27T12:20:54.654Z,2.15
2023-02-27T12:24:15.648Z,1.90
2023-02-27T12:27:31.422Z,1.80
2023-02-27T12:30:45.500Z,1.48
2023-02-27T12:33:36.516Z,1.85
2023-02-27T12:36:22.638Z,2.30
2023-02-27T12:42:43.324Z,1.63
2023-02-27T12:45:46.990Z,2.10
2023-02-27T12:48:43.481Z,1.83
2023-02-27T12:51:32.568Z,1.92
2023-02-27T12:54:41.582Z,1.50
2023-02-27T12:57:28.788Z,2.15
2023-02-27T13:00:32.238Z,1.73
2023-02-27T13:03:29.377Z,2.75
2023-02-27T13:06:49.859Z,1.88
2023-02-27T13:09:52.700Z,1.80
2023-02-27T13:12:54.500Z,2.00
2023-02-27T13:16:07.301Z,1.70
2023-02-27T13:18:48.546Z,1.48
2023-02-27T13:21:29.874Z,2.25
2023-02-27T13:24:28.105Z,2.10
2023-02-27T13:27:17.309Z,2.63
2023-02-27T13:30:35.365Z,2.33
2023-02-27T13:33:22.892Z,1.98
2023-02-27T13:36:36.168Z,2.42
2023-02-27T13:39:55.486Z,2.15
2023-02-27T13:42:34.946Z,1.85
2023-02-27T13:45:53.850Z,2.35
2023-02-27T13:48:45.641Z,2.03
2023-02-27T13:51:48.891Z,2.30
2023-02-27T13:54:31.129Z,2.88
2023-02-27T14:00:34.775Z,2.58
2023-02-27T14:03:28.512Z,2.00
2023-02-27T14:06:03.034Z,2.63
2023-02-27T14:08:49.656Z,1.83
2023-02-27T14:11:51.915Z,2.08
2023-02-27T14:15:05.046Z,2.70
2023-02-27T14:17:46.112Z,2.28
2023-02-27T14:20:29.219Z,2.60
2023-02-27T14:23:23.661Z,2.72
2023-02-27T14:26:03.513Z,2.63
2023-02-27T14:28:53.063Z,2.53
2023-02-27T14:31:41.466Z,2.40
2023-02-27T14:34:32.225Z,2.97
2023-02-27T14:37:14.465Z,3.20
2023-02-27T14:39:51.040Z,2.80
2023-02-27T14:42:51.389Z,2.97
2023-02-27T14:45:40.895Z,4.18
2023-02-27T14:48:26.319Z,2.65
2023-02-27T14:51:13.478Z,2.95
2023-02-27T14:54:05.112Z,3.05
2023-02-27T14:56:37.716Z,3.40
2023-02-27T14:59:30.579Z,2.75
2023-02-27T15:02:42.118Z,3.08
2023-02-27T15:05:17.220Z,2.63
2023-02-27T15:07:56.971Z,2.88
2023-02-27T15:10:42.697Z,2.60
2023-02-27T15:13:40.201Z,2.50
2023-02-27T15:16:46.180Z,2.30
2023-02-27T15:19:35.746Z,3.28
2023-02-27T15:22:38.666Z,2.72
2023-02-27T15:25:39.844Z,2.72
2023-02-27T15:28:19.806Z,2.80
2023-02-27T15:31:00.385Z,2.85
2023-02-27T15:33:54.401Z,2.70
2023-02-27T15:36:47.230Z,2.75
2023-02-27T15:39:34.090Z,3.47
2023-02-27T15:42:40.784Z,2.67
2023-02-27T15:45:22.869Z,2.92
2023-02-27T15:47:56.008Z,2.63
2023-02-27T15:50:53.960Z,3.28
2023-02-27T15:53:43.410Z,3.50
2023-02-27T15:56:21.530Z,3.47
2023-02-27T15:59:01.665Z,2.83
2023-02-27T16:01:40.015Z,3.25
2023-02-27T16:04:36.098Z,3.03
2023-02-27T16:07:21.426Z,2.60
2023-02-27T16:10:12.503Z,3.88
2023-02-27T16:12:43.448Z,2.67
2023-02-27T16:15:33.589Z,2.92
2023-02-27T16:18:34.950Z,3.40
2023-02-27T16:21:14.123Z,2.80
2023-02-27T16:23:50.465Z,2.92
2023-02-27T16:26:37.292Z,3.20
2023-02-27T16:29:44.080Z,2.88
2023-02-27T16:32:47.158Z,2.92
2023-02-27T16:35:32.369Z,3.63
2023-02-27T16:38:11.415Z,2.95
2023-02-27T16:40:56.462Z,3.22
2023-02-27T16:43:33.729Z,2.67
2023-02-27T16:46:08.704Z,3.20
2023-02-27T16:48:48.725Z,3.80
2023-02-27T16:51:38.492Z,3.22
2023-02-27T16:54:26.115Z,3.13
2023-02-27T16:57:32.785Z,3.55
2023-02-27T17:00:26.118Z,3.80
2023-02-27T17:03:23.814Z,3.90
2023-02-27T17:06:12.503Z,4.57
2023-02-27T17:08:50.703Z,6.28
2023-02-27T17:11:33.587Z,7.38
2023-02-27T17:14:05.575Z,8.05
2023-02-27T17:16:50.793Z,7.78
2023-02-27T17:19:31.378Z,6.22
2023-02-27T17:22:29.636Z,6.25
2023-02-27T17:25:06.079Z,5.78
2023-02-27T17:27:40.099Z,5.57
2023-02-27T17:30:35.016Z,6.43
2023-02-27T17:33:23.228Z,5.82
2023-02-27T17:36:12.397Z,7.32
2023-02-27T17:42:21.145Z,7.47
2023-02-27T17:45:08.001Z,8.37
2023-02-27T17:48:05.316Z,8.35
2023-02-27T17:50:46.014Z,8.25
2023-02-27T17:53:30.270Z,7.32
2023-02-27T17:56:25.681Z,7.30
2023-02-27T17:59:10.733Z,7.25
2023-02-27T18:01:50.069Z,5.28
2023-02-27T18:04:30.303Z,4.05
2023-02-27T18:07:17.997Z,3.90
2023-02-27T18:10:17.134Z,4.72
2023-02-27T18:12:47.979Z,4.90
2023-02-27T18:15:15.369Z,4.88
2023-02-27T18:17:44.250Z,5.15
2023-02-27T18:20:25.739Z,4.82
2023-02-27T18:23:03.356Z,3.97
2023-02-27T18:25:37.250Z,4.10
2023-02-27T18:28:15.816Z,4.20
2023-02-27T18:30:47.360Z,4.00
2023-02-27T18:33:27.606Z,4.20
2023-02-27T18:36:06.603Z,4.50
2023-02-27T18:38:56.451Z,5.10
2023-02-27T18:41:29.688Z,4.10
2023-02-27T18:47:30.127Z,4.00
2023-02-27T18:50:10.957Z,3.80
2023-02-27T18:52:44.386Z,4.70
2023-02-27T18:55:29.577Z,4.38
2023-02-27T18:58:28.144Z,4.03
2023-02-27T19:01:08.077Z,3.83
2023-02-27T19:03:54.046Z,4.22
2023-02-27T19:06:30.835Z,4.10
2023-02-27T19:09:16.814Z,4.75
2023-02-27T19:12:01.764Z,4.45
2023-02-27T19:14:45.519Z,4.82
2023-02-27T19:20:28.146Z,3.72
2023-02-27T19:23:16.777Z,3.83
2023-02-27T19:26:02.488Z,3.85
2023-02-27T19:28:56.478Z,4.05
2023-02-27T19:31:29.376Z,4.32
2023-02-27T19:34:07.360Z,3.88
2023-02-27T19:36:40.305Z,4.07
2023-02-27T19:39:20.842Z,3.80
2023-02-27T19:42:02.742Z,3.95
2023-02-27T19:44:44.110Z,4.40
2023-02-27T19:47:14.642Z,4.03
2023-02-27T19:49:42.741Z,4.07
2023-02-27T19:52:20.340Z,3.75
2023-02-27T19:54:52.002Z,22.90
2023-02-27T19:57:28.631Z,4.15
2023-02-27T20:00:22.873Z,4.28
2023-02-27T20:03:06.296Z,3.83
2023-02-27T20:05:50.491Z,3.95
2023-02-27T20:08:30.219Z,4.65
2023-02-27T20:11:00.363Z,5.03
2023-02-27T20:13:40.146Z,4.38
2023-02-27T20:16:28.890Z,4.57
2023-02-27T20:19:18.497Z,6.20
2023-02-27T20:21:52.671Z,4.90
2023-02-27T20:24:32.132Z,4.28
2023-02-27T20:27:01.528Z,5.15
2023-02-27T20:29:33.927Z,5.20
2023-02-27T20:32:21.683Z,4.93
2023-02-27T20:34:55.911Z,4.85
2023-02-27T20:37:42.869Z,4.82
2023-02-27T20:40:47.549Z,4.18
2023-02-27T20:43:37.666Z,3.65
2023-02-27T20:46:20.622Z,3.63
2023-02-27T20:48:55.058Z,3.72
2023-02-27T20:51:41.478Z,3.78
2023-02-27T20:54:23.556Z,3.60
2023-02-27T20:57:08.810Z,3.78
2023-02-27T20:59:50.916Z,4.30
2023-02-27T21:02:41.325Z,4.32
2023-02-27T21:05:34.489Z,3.92
2023-02-27T21:08:27.745Z,4.32
2023-02-27T21:11:41.702Z,3.90
2023-02-27T21:14:27.971Z,3.92
2023-02-27T21:17:15.534Z,4.05
2023-02-27T21:20:01.406Z,3.50
2023-02-27T21:22:39.413Z,3.70
2023-02-27T21:25:31.931Z,3.80
2023-02-27T21:28:11.448Z,3.00
2023-02-27T21:30:57.546Z,3.70
2023-02-27T21:33:39.067Z,3.28
2023-02-27T21:36:32.897Z,4.35
2023-02-27T21:39:21.378Z,3.20
2023-02-27T21:42:04.978Z,3.60
2023-02-27T21:44:47.229Z,3.58
2023-02-27T21:47:21.160Z,3.75
2023-02-27T21:50:23.768Z,3.55
2023-02-27T21:52:57.472Z,3.67
2023-02-27T21:55:27.922Z,3.65
2023-02-27T21:57:55.425Z,3.70
2023-02-27T22:00:30.033Z,3.67
2023-02-27T22:02:57.565Z,3.53
2023-02-27T22:05:33.531Z,3.97
2023-02-27T22:08:18.299Z,3.72
2023-02-27T22:11:13.599Z,4.20
2023-02-27T22:14:02.970Z,2.92
2023-02-27T22:17:04.524Z,3.25
2023-02-27T22:19:59.833Z,3.38
2023-02-27T22:22:58.915Z,3.88
2023-02-27T22:25:30.923Z,3.67
2023-02-27T22:28:16.083Z,3.67
2023-02-27T22:30:59.603Z,3.53
2023-02-27T22:33:37.087Z,3.28
2023-02-27T22:36:17.502Z,3.28
2023-02-27T22:42:06.796Z,3.63
2023-02-27T22:44:43.996Z,4.55
2023-02-27T22:47:29.298Z,3.50
2023-02-27T22:50:10.951Z,3.13
2023-02-27T22:52:49.509Z,3.20
2023-02-27T22:55:31.973Z,3.25
2023-02-27T22:58:05.486Z,3.97
2023-02-27T23:01:01.923Z,3.10
2023-02-27T23:03:36.933Z,3.45
2023-02-27T23:06:17.762Z,3.70
2023-02-27T23:08:55.051Z,3.10
2023-02-27T23:11:33.388Z,3.63
2023-02-27T23:14:12.303Z,3.47
2023-02-27T23:16:46.033Z,3.70
2023-02-27T23:19:20.308Z,3.78
2023-02-27T23:21:56.354Z,3.40
2023-02-27T23:24:29.053Z,3.78
2023-02-27T23:27:07.078Z,3.22
2023-02-27T23:29:51.924Z,3.55
2023-02-27T23:32:32.344Z,3.08
2023-02-27T23:35:11.801Z,3.15
2023-02-27T23:37:58.504Z,3.47
2023-02-27T23:40:38.313Z,3.50
2023-02-27T23:43:17.389Z,3.00
2023-02-27T23:45:51.155Z,3.67
2023-02-27T23:48:37.913Z,3.60
2023-02-27T23:51:33.606Z,3.47
2023-02-27T23:54:15.666Z,3.28
2023-02-27T23:56:50.326Z,3.28
2023-02-27T23:59:32.209Z,3.13
